sensor_id;sensor_type;location;lat;lon;timestamp;P1;durP1;ratioP1;P2;durP2;ratioP2
29824;SDS011;16713;52.916;12.834;2023-04-24T00:00:58;4.65;;;3.72;;
29824;SDS011;16713;52.916;12.834;2023-04-24T00:03:27;4.40;;;4.00;;
29824;SDS011;16713;52.916;12.834;2023-04-24T00:05:55;4.47;;;3.67;;
29824;SDS011;16713;52.916;12.834;2023-04-24T00:08:22;5.38;;;4.15;;
29824;SDS011;16713;52.916;12.834;2023-04-24T00:10:49;7.30;;;4.30;;
29824;SDS011;16713;52.916;12.834;2023-04-24T00:13:16;5.32;;;4.50;;
29824;SDS011;16713;52.916;12.834;2023-04-24T00:15:42;6.28;;;4.20;;
29824;SDS011;16713;52.916;12.834;2023-04-24T00:18:09;6.85;;;4.10;;
29824;SDS011;16713;52.916;12.834;2023-04-24T00:20:35;5.03;;;4.10;;
29824;SDS011;16713;52.916;12.834;2023-04-24T00:23:02;4.85;;;4.30;;
29824;SDS011;16713;52.916;12.834;2023-04-24T00:25:29;5.07;;;4.25;;
29824;SDS011;16713;52.916;12.834;2023-04-24T00:27:55;7.57;;;4.47;;
29824;SDS011;16713;52.916;12.834;2023-04-24T00:30:22;5.55;;;4.78;;
29824;SDS011;16713;52.916;12.834;2023-04-24T00:32:48;7.65;;;4.38;;
29824;SDS011;16713;52.916;12.834;2023-04-24T00:35:15;6.03;;;4.97;;
29824;SDS011;16713;52.916;12.834;2023-04-24T00:37:41;5.05;;;4.00;;
29824;SDS011;16713;52.916;12.834;2023-04-24T00:40:08;5.68;;;3.78;;
29824;SDS011;16713;52.916;12.834;2023-04-24T00:42:35;10.88;;;4.85;;
29824;SDS011;16713;52.916;12.834;2023-04-24T00:45:01;6.30;;;4.72;;
29824;SDS011;16713;52.916;12.834;2023-04-24T00:47:29;4.90;;;4.40;;
29824;SDS011;16713;52.916;12.834;2023-04-24T00:49:56;8.13;;;4.35;;
29824;SDS011;16713;52.916;12.834;2023-04-24T00:52:22;5.13;;;4.25;;
29824;SDS011;16713;52.916;12.834;2023-04-24T00:54:50;4.57;;;4.18;;
29824;SDS011;16713;52.916;12.834;2023-04-24T00:57:16;5.00;;;4.20;;
29824;SDS011;16713;52.916;12.834;2023-04-24T00:59:43;5.00;;;4.25;;
29824;SDS011;16713;52.916;12.834;2023-04-24T01:02:10;5.80;;;4.80;;
29824;SDS011;16713;52.916;12.834;2023-04-24T01:04:37;5.72;;;4.65;;
29824;SDS011;16713;52.916;12.834;2023-04-24T01:07:04;5.60;;;4.57;;
29824;SDS011;16713;52.916;12.834;2023-04-24T01:09:37;8.30;;;4.28;;
29824;SDS011;16713;52.916;12.834;2023-04-24T01:12:06;7.35;;;4.10;;
29824;SDS011;16713;52.916;12.834;2023-04-24T01:14:33;5.75;;;4.00;;
29824;SDS011;16713;52.916;12.834;2023-04-24T01:16:59;5.15;;;4.32;;
29824;SDS011;16713;52.916;12.834;2023-04-24T01:19:26;7.88;;;4.03;;
29824;SDS011;16713;52.916;12.834;2023-04-24T01:21:53;7.70;;;5.05;;
29824;SDS011;16713;52.916;12.834;2023-04-24T01:24:24;10.07;;;4.68;;
29824;SDS011;16713;52.916;12.834;2023-04-24T01:26:50;5.05;;;4.15;;
29824;SDS011;16713;52.916;12.834;2023-04-24T01:29:17;5.22;;;4.20;;
29824;SDS011;16713;52.916;12.834;2023-04-24T01:31:43;5.85;;;4.32;;
29824;SDS011;16713;52.916;12.834;2023-04-24T01:34:10;6.30;;;4.22;;
29824;SDS011;16713;52.916;12.834;2023-04-24T01:36:37;5.38;;;4.20;;
29824;SDS011;16713;52.916;12.834;2023-04-24T01:39:04;6.15;;;4.85;;
29824;SDS011;16713;52.916;12.834;2023-04-24T01:41:30;6.85;;;4.68;;
29824;SDS011;16713;52.916;12.834;2023-04-24T01:43:57;4.70;;;4.25;;
29824;SDS011;16713;52.916;12.834;2023-04-24T01:46:24;8.00;;;4.57;;
29824;SDS011;16713;52.916;12.834;2023-04-24T01:48:51;5.68;;;4.45;;
29824;SDS011;16713;52.916;12.834;2023-04-24T01:51:18;5.82;;;4.65;;
29824;SDS011;16713;52.916;12.834;2023-04-24T01:53:45;8.88;;;5.78;;
29824;SDS011;16713;52.916;12.834;2023-04-24T01:56:11;4.80;;;4.30;;
29824;SDS011;16713;52.916;12.834;2023-04-24T01:58:38;5.35;;;4.78;;
29824;SDS011;16713;52.916;12.834;2023-04-24T02:01:06;9.27;;;5.72;;
29824;SDS011;16713;52.916;12.834;2023-04-24T02:03:32;5.85;;;4.65;;
29824;SDS011;16713;52.916;12.834;2023-04-24T02:05:59;6.47;;;4.95;;
29824;SDS011;16713;52.916;12.834;2023-04-24T02:08:26;6.90;;;4.57;;
29824;SDS011;16713;52.916;12.834;2023-04-24T02:10:52;6.10;;;5.13;;
29824;SDS011;16713;52.916;12.834;2023-04-24T02:13:19;8.20;;;5.65;;
29824;SDS011;16713;52.916;12.834;2023-04-24T02:15:45;6.43;;;5.30;;
29824;SDS011;16713;52.916;12.834;2023-04-24T02:18:12;6.40;;;5.60;;
29824;SDS011;16713;52.916;12.834;2023-04-24T02:20:38;6.55;;;5.72;;
29824;SDS011;16713;52.916;12.834;2023-04-24T02:23:05;7.28;;;5.72;;
29824;SDS011;16713;52.916;12.834;2023-04-24T02:25:31;6.40;;;5.80;;
29824;SDS011;16713;52.916;12.834;2023-04-24T02:27:59;5.78;;;4.80;;
29824;SDS011;16713;52.916;12.834;2023-04-24T02:30:25;6.75;;;5.57;;
29824;SDS011;16713;52.916;12.834;2023-04-24T02:32:52;7.70;;;6.30;;
29824;SDS011;16713;52.916;12.834;2023-04-24T02:35:18;6.53;;;5.72;;
29824;SDS011;16713;52.916;12.834;2023-04-24T02:37:45;6.90;;;6.10;;
29824;SDS011;16713;52.916;12.834;2023-04-24T02:40:12;6.70;;;5.75;;
29824;SDS011;16713;52.916;12.834;2023-04-24T02:42:38;6.68;;;5.57;;
29824;SDS011;16713;52.916;12.834;2023-04-24T02:45:05;6.53;;;5.63;;
29824;SDS011;16713;52.916;12.834;2023-04-24T02:47:32;7.40;;;5.78;;
29824;SDS011;16713;52.916;12.834;2023-04-24T02:49:58;10.45;;;6.03;;
29824;SDS011;16713;52.916;12.834;2023-04-24T02:52:24;6.10;;;5.18;;
29824;SDS011;16713;52.916;12.834;2023-04-24T02:54:51;9.00;;;6.32;;
29824;SDS011;16713;52.916;12.834;2023-04-24T02:57:17;7.38;;;6.20;;
29824;SDS011;16713;52.916;12.834;2023-04-24T02:59:44;9.82;;;6.80;;
29824;SDS011;16713;52.916;12.834;2023-04-24T03:02:10;7.70;;;6.35;;
29824;SDS011;16713;52.916;12.834;2023-04-24T03:04:37;9.05;;;6.45;;
29824;SDS011;16713;52.916;12.834;2023-04-24T03:07:04;7.03;;;6.03;;
29824;SDS011;16713;52.916;12.834;2023-04-24T03:09:30;7.60;;;6.63;;
29824;SDS011;16713;52.916;12.834;2023-04-24T03:11:57;12.43;;;6.85;;
29824;SDS011;16713;52.916;12.834;2023-04-24T03:14:24;8.63;;;6.40;;
29824;SDS011;16713;52.916;12.834;2023-04-24T03:16:51;9.05;;;7.07;;
29824;SDS011;16713;52.916;12.834;2023-04-24T03:19:17;12.52;;;6.95;;
29824;SDS011;16713;52.916;12.834;2023-04-24T03:21:43;8.35;;;6.80;;
29824;SDS011;16713;52.916;12.834;2023-04-24T03:24:10;8.27;;;7.03;;
29824;SDS011;16713;52.916;12.834;2023-04-24T03:26:36;9.13;;;6.53;;
29824;SDS011;16713;52.916;12.834;2023-04-24T03:29:03;9.05;;;7.30;;
29824;SDS011;16713;52.916;12.834;2023-04-24T03:31:29;8.13;;;6.65;;
29824;SDS011;16713;52.916;12.834;2023-04-24T03:33:56;8.63;;;7.18;;
29824;SDS011;16713;52.916;12.834;2023-04-24T03:36:22;11.80;;;7.53;;
29824;SDS011;16713;52.916;12.834;2023-04-24T03:38:49;12.32;;;7.82;;
29824;SDS011;16713;52.916;12.834;2023-04-24T03:41:15;9.57;;;7.35;;
29824;SDS011;16713;52.916;12.834;2023-04-24T03:43:42;10.30;;;7.70;;
29824;SDS011;16713;52.916;12.834;2023-04-24T03:46:08;8.05;;;6.40;;
29824;SDS011;16713;52.916;12.834;2023-04-24T03:48:35;7.93;;;6.93;;
29824;SDS011;16713;52.916;12.834;2023-04-24T03:51:02;10.90;;;7.68;;
29824;SDS011;16713;52.916;12.834;2023-04-24T03:53:29;7.82;;;6.47;;
29824;SDS011;16713;52.916;12.834;2023-04-24T03:55:55;10.13;;;6.47;;
29824;SDS011;16713;52.916;12.834;2023-04-24T03:58:22;8.60;;;6.82;;
29824;SDS011;16713;52.916;12.834;2023-04-24T04:00:48;9.52;;;6.88;;
29824;SDS011;16713;52.916;12.834;2023-04-24T04:03:15;9.52;;;7.07;;
29824;SDS011;16713;52.916;12.834;2023-04-24T04:05:42;7.43;;;6.57;;
29824;SDS011;16713;52.916;12.834;2023-04-24T04:08:09;10.05;;;7.35;;
29824;SDS011;16713;52.916;12.834;2023-04-24T04:10:35;9.32;;;6.95;;
29824;SDS011;16713;52.916;12.834;2023-04-24T04:13:02;11.77;;;7.13;;
29824;SDS011;16713;52.916;12.834;2023-04-24T04:15:28;10.80;;;7.18;;
29824;SDS011;16713;52.916;12.834;2023-04-24T04:17:55;9.18;;;7.15;;
29824;SDS011;16713;52.916;12.834;2023-04-24T04:20:21;9.40;;;6.95;;
29824;SDS011;16713;52.916;12.834;2023-04-24T04:22:48;8.45;;;7.03;;
29824;SDS011;16713;52.916;12.834;2023-04-24T04:25:14;11.35;;;6.65;;
29824;SDS011;16713;52.916;12.834;2023-04-24T04:27:41;8.77;;;6.60;;
29824;SDS011;16713;52.916;12.834;2023-04-24T04:30:08;11.07;;;6.88;;
29824;SDS011;16713;52.916;12.834;2023-04-24T04:32:35;7.85;;;6.28;;
29824;SDS011;16713;52.916;12.834;2023-04-24T04:35:02;10.40;;;6.25;;
29824;SDS011;16713;52.916;12.834;2023-04-24T04:37:29;9.13;;;6.18;;
29824;SDS011;16713;52.916;12.834;2023-04-24T04:39:57;7.55;;;6.40;;
29824;SDS011;16713;52.916;12.834;2023-04-24T04:42:27;6.70;;;6.00;;
29824;SDS011;16713;52.916;12.834;2023-04-24T04:44:54;7.95;;;5.90;;
29824;SDS011;16713;52.916;12.834;2023-04-24T04:47:22;8.20;;;5.60;;
29824;SDS011;16713;52.916;12.834;2023-04-24T04:49:49;7.82;;;6.00;;
29824;SDS011;16713;52.916;12.834;2023-04-24T04:52:18;6.75;;;5.80;;
29824;SDS011;16713;52.916;12.834;2023-04-24T04:54:44;7.25;;;5.45;;
29824;SDS011;16713;52.916;12.834;2023-04-24T04:57:12;6.65;;;5.63;;
29824;SDS011;16713;52.916;12.834;2023-04-24T04:59:39;8.23;;;6.63;;
29824;SDS011;16713;52.916;12.834;2023-04-24T05:02:07;6.32;;;5.72;;
29824;SDS011;16713;52.916;12.834;2023-04-24T05:04:34;7.78;;;5.38;;
29824;SDS011;16713;52.916;12.834;2023-04-24T05:07:01;9.73;;;5.93;;
29824;SDS011;16713;52.916;12.834;2023-04-24T05:09:27;9.65;;;6.25;;
29824;SDS011;16713;52.916;12.834;2023-04-24T05:11:55;6.95;;;5.45;;
29824;SDS011;16713;52.916;12.834;2023-04-24T05:14:22;6.65;;;5.40;;
29824;SDS011;16713;52.916;12.834;2023-04-24T05:16:48;5.78;;;5.18;;
29824;SDS011;16713;52.916;12.834;2023-04-24T05:19:15;8.68;;;5.40;;
29824;SDS011;16713;52.916;12.834;2023-04-24T05:21:41;6.25;;;5.18;;
29824;SDS011;16713;52.916;12.834;2023-04-24T05:24:08;5.97;;;5.38;;
29824;SDS011;16713;52.916;12.834;2023-04-24T05:26:34;6.00;;;4.60;;
29824;SDS011;16713;52.916;12.834;2023-04-24T05:29:02;5.57;;;4.72;;
29824;SDS011;16713;52.916;12.834;2023-04-24T05:31:28;7.75;;;4.90;;
29824;SDS011;16713;52.916;12.834;2023-04-24T05:33:55;6.57;;;4.50;;
29824;SDS011;16713;52.916;12.834;2023-04-24T05:36:21;6.38;;;4.55;;
29824;SDS011;16713;52.916;12.834;2023-04-24T05:38:48;5.43;;;4.50;;
29824;SDS011;16713;52.916;12.834;2023-04-24T05:41:14;6.38;;;4.72;;
29824;SDS011;16713;52.916;12.834;2023-04-24T05:43:41;4.47;;;4.07;;
29824;SDS011;16713;52.916;12.834;2023-04-24T05:46:07;4.88;;;4.28;;
29824;SDS011;16713;52.916;12.834;2023-04-24T05:48:34;6.60;;;4.03;;
29824;SDS011;16713;52.916;12.834;2023-04-24T05:51:00;7.38;;;4.60;;
29824;SDS011;16713;52.916;12.834;2023-04-24T05:53:27;6.15;;;4.05;;
29824;SDS011;16713;52.916;12.834;2023-04-24T05:55:53;4.53;;;3.88;;
29824;SDS011;16713;52.916;12.834;2023-04-24T05:58:20;5.47;;;3.63;;
29824;SDS011;16713;52.916;12.834;2023-04-24T06:00:46;4.63;;;3.40;;
29824;SDS011;16713;52.916;12.834;2023-04-24T06:03:13;4.35;;;3.80;;
29824;SDS011;16713;52.916;12.834;2023-04-24T06:05:40;5.57;;;3.13;;
29824;SDS011;16713;52.916;12.834;2023-04-24T06:08:06;3.95;;;3.13;;
29824;SDS011;16713;52.916;12.834;2023-04-24T06:10:33;7.22;;;3.72;;
29824;SDS011;16713;52.916;12.834;2023-04-24T06:12:59;3.60;;;2.95;;
29824;SDS011;16713;52.916;12.834;2023-04-24T06:15:29;4.05;;;3.65;;
29824;SDS011;16713;52.916;12.834;2023-04-24T06:17:57;2.70;;;2.50;;
29824;SDS011;16713;52.916;12.834;2023-04-24T06:20:24;3.58;;;3.00;;
29824;SDS011;16713;52.916;12.834;2023-04-24T06:22:50;3.53;;;2.83;;
29824;SDS011;16713;52.916;12.834;2023-04-24T06:25:17;3.90;;;3.40;;
29824;SDS011;16713;52.916;12.834;2023-04-24T06:27:45;3.90;;;2.70;;
29824;SDS011;16713;52.916;12.834;2023-04-24T06:30:11;3.00;;;2.38;;
29824;SDS011;16713;52.916;12.834;2023-04-24T06:32:38;3.97;;;2.50;;
29824;SDS011;16713;52.916;12.834;2023-04-24T06:35:05;2.80;;;2.30;;
29824;SDS011;16713;52.916;12.834;2023-04-24T06:37:33;5.22;;;2.45;;
29824;SDS011;16713;52.916;12.834;2023-04-24T06:39:59;5.20;;;2.95;;
29824;SDS011;16713;52.916;12.834;2023-04-24T06:42:26;2.90;;;2.63;;
29824;SDS011;16713;52.916;12.834;2023-04-24T06:44:52;3.95;;;2.83;;
29824;SDS011;16713;52.916;12.834;2023-04-24T06:47:19;2.40;;;2.20;;
29824;SDS011;16713;52.916;12.834;2023-04-24T06:49:45;4.28;;;2.83;;
29824;SDS011;16713;52.916;12.834;2023-04-24T06:52:12;3.03;;;2.72;;
29824;SDS011;16713;52.916;12.834;2023-04-24T06:54:38;4.32;;;2.72;;
29824;SDS011;16713;52.916;12.834;2023-04-24T06:57:05;4.57;;;2.70;;
29824;SDS011;16713;52.916;12.834;2023-04-24T06:59:32;3.45;;;2.47;;
29824;SDS011;16713;52.916;12.834;2023-04-24T07:01:58;4.22;;;2.63;;
29824;SDS011;16713;52.916;12.834;2023-04-24T07:04:24;2.75;;;1.75;;
29824;SDS011;16713;52.916;12.834;2023-04-24T07:06:52;2.92;;;2.15;;
29824;SDS011;16713;52.916;12.834;2023-04-24T07:09:22;4.30;;;2.17;;
29824;SDS011;16713;52.916;12.834;2023-04-24T07:11:49;1.92;;;1.83;;
29824;SDS011;16713;52.916;12.834;2023-04-24T07:14:16;3.17;;;1.92;;
29824;SDS011;16713;52.916;12.834;2023-04-24T07:16:43;6.03;;;2.65;;
29824;SDS011;16713;52.916;12.834;2023-04-24T07:19:11;2.75;;;1.60;;
29824;SDS011;16713;52.916;12.834;2023-04-24T07:21:39;1.88;;;1.48;;
29824;SDS011;16713;52.916;12.834;2023-04-24T07:24:05;1.70;;;1.38;;
29824;SDS011;16713;52.916;12.834;2023-04-24T07:26:35;1.98;;;1.42;;
29824;SDS011;16713;52.916;12.834;2023-04-24T07:29:01;2.85;;;1.48;;
29824;SDS011;16713;52.916;12.834;2023-04-24T07:31:28;3.03;;;1.33;;
29824;SDS011;16713;52.916;12.834;2023-04-24T07:33:55;2.15;;;1.30;;
29824;SDS011;16713;52.916;12.834;2023-04-24T07:36:24;3.08;;;1.20;;
29824;SDS011;16713;52.916;12.834;2023-04-24T07:38:52;1.98;;;1.30;;
29824;SDS011;16713;52.916;12.834;2023-04-24T07:41:19;13.43;;;9.20;;
29824;SDS011;16713;52.916;12.834;2023-04-24T07:43:46;8.10;;;6.15;;
29824;SDS011;16713;52.916;12.834;2023-04-24T07:46:13;1.40;;;1.17;;
29824;SDS011;16713;52.916;12.834;2023-04-24T07:48:39;1.55;;;1.00;;
29824;SDS011;16713;52.916;12.834;2023-04-24T07:51:06;1.98;;;1.10;;
29824;SDS011;16713;52.916;12.834;2023-04-24T07:53:32;3.60;;;1.45;;
29824;SDS011;16713;52.916;12.834;2023-04-24T07:55:59;0.75;;;0.75;;
29824;SDS011;16713;52.916;12.834;2023-04-24T07:58:25;2.17;;;1.42;;
29824;SDS011;16713;52.916;12.834;2023-04-24T08:00:52;1.00;;;0.90;;
29824;SDS011;16713;52.916;12.834;2023-04-24T08:03:19;1.10;;;0.90;;
29824;SDS011;16713;52.916;12.834;2023-04-24T08:05:46;1.10;;;0.90;;
29824;SDS011;16713;52.916;12.834;2023-04-24T08:08:13;2.20;;;1.10;;
29824;SDS011;16713;52.916;12.834;2023-04-24T08:10:39;1.65;;;0.85;;
29824;SDS011;16713;52.916;12.834;2023-04-24T08:13:06;1.35;;;0.80;;
29824;SDS011;16713;52.916;12.834;2023-04-24T08:15:33;0.80;;;0.80;;
29824;SDS011;16713;52.916;12.834;2023-04-24T08:17:59;0.80;;;0.77;;
29824;SDS011;16713;52.916;12.834;2023-04-24T08:20:26;1.40;;;0.80;;
29824;SDS011;16713;52.916;12.834;2023-04-24T08:22:52;1.13;;;0.80;;
29824;SDS011;16713;52.916;12.834;2023-04-24T08:25:20;1.75;;;0.60;;
29824;SDS011;16713;52.916;12.834;2023-04-24T08:27:49;2.20;;;0.85;;
29824;SDS011;16713;52.916;12.834;2023-04-24T08:30:15;2.50;;;0.70;;
29824;SDS011;16713;52.916;12.834;2023-04-24T08:32:42;0.95;;;0.88;;
29824;SDS011;16713;52.916;12.834;2023-04-24T08:35:09;2.72;;;0.82;;
29824;SDS011;16713;52.916;12.834;2023-04-24T08:37:36;0.88;;;0.70;;
29824;SDS011;16713;52.916;12.834;2023-04-24T08:40:05;1.00;;;0.90;;
29824;SDS011;16713;52.916;12.834;2023-04-24T08:42:36;0.68;;;0.68;;
29824;SDS011;16713;52.916;12.834;2023-04-24T08:45:03;0.88;;;0.77;;
29824;SDS011;16713;52.916;12.834;2023-04-24T08:47:31;1.08;;;0.98;;
29824;SDS011;16713;52.916;12.834;2023-04-24T08:49:59;1.92;;;1.00;;
29824;SDS011;16713;52.916;12.834;2023-04-24T08:52:29;1.85;;;1.40;;
29824;SDS011;16713;52.916;12.834;2023-04-24T08:54:55;1.35;;;0.90;;
29824;SDS011;16713;52.916;12.834;2023-04-24T08:57:22;1.48;;;0.80;;
29824;SDS011;16713;52.916;12.834;2023-04-24T08:59:50;1.27;;;0.70;;
29824;SDS011;16713;52.916;12.834;2023-04-24T09:02:17;3.30;;;0.95;;
29824;SDS011;16713;52.916;12.834;2023-04-24T09:04:44;1.30;;;0.70;;
29824;SDS011;16713;52.916;12.834;2023-04-24T09:07:14;1.95;;;1.40;;
29824;SDS011;16713;52.916;12.834;2023-04-24T09:09:42;1.23;;;0.60;;
29824;SDS011;16713;52.916;12.834;2023-04-24T09:12:10;2.05;;;0.70;;
29824;SDS011;16713;52.916;12.834;2023-04-24T09:14:37;2.75;;;0.80;;
29824;SDS011;16713;52.916;12.834;2023-04-24T09:17:08;2.15;;;0.88;;
29824;SDS011;16713;52.916;12.834;2023-04-24T09:19:35;2.00;;;0.75;;
29824;SDS011;16713;52.916;12.834;2023-04-24T09:22:04;0.90;;;0.77;;
29824;SDS011;16713;52.916;12.834;2023-04-24T09:24:33;2.10;;;0.70;;
29824;SDS011;16713;52.916;12.834;2023-04-24T09:27:01;2.55;;;0.90;;
29824;SDS011;16713;52.916;12.834;2023-04-24T09:29:28;0.77;;;0.63;;
29824;SDS011;16713;52.916;12.834;2023-04-24T09:31:54;0.85;;;0.70;;
29824;SDS011;16713;52.916;12.834;2023-04-24T09:34:23;0.95;;;0.88;;
29824;SDS011;16713;52.916;12.834;2023-04-24T09:36:51;2.25;;;0.98;;
29824;SDS011;16713;52.916;12.834;2023-04-24T09:39:18;1.05;;;0.77;;
29824;SDS011;16713;52.916;12.834;2023-04-24T09:44:19;0.80;;;0.80;;
29824;SDS011;16713;52.916;12.834;2023-04-24T09:46:50;2.08;;;1.20;;
29824;SDS011;16713;52.916;12.834;2023-04-24T09:49:25;2.17;;;0.73;;
29824;SDS011;16713;52.916;12.834;2023-04-24T09:51:52;3.33;;;1.30;;
29824;SDS011;16713;52.916;12.834;2023-04-24T09:54:32;2.25;;;1.17;;
29824;SDS011;16713;52.916;12.834;2023-04-24T09:56:59;2.45;;;0.90;;
29824;SDS011;16713;52.916;12.834;2023-04-24T09:59:29;3.00;;;0.85;;
29824;SDS011;16713;52.916;12.834;2023-04-24T10:01:55;3.13;;;1.00;;
29824;SDS011;16713;52.916;12.834;2023-04-24T10:04:25;1.30;;;0.75;;
29824;SDS011;16713;52.916;12.834;2023-04-24T10:06:54;3.15;;;0.98;;
29824;SDS011;16713;52.916;12.834;2023-04-24T10:09:22;2.28;;;1.00;;
29824;SDS011;16713;52.916;12.834;2023-04-24T10:11:51;3.33;;;1.10;;
29824;SDS011;16713;52.916;12.834;2023-04-24T10:14:20;1.75;;;1.25;;
29824;SDS011;16713;52.916;12.834;2023-04-24T10:16:53;2.95;;;1.05;;
29824;SDS011;16713;52.916;12.834;2023-04-24T10:19:22;0.65;;;0.65;;
29824;SDS011;16713;52.916;12.834;2023-04-24T10:21:51;1.60;;;0.80;;
29824;SDS011;16713;52.916;12.834;2023-04-24T10:24:19;1.30;;;0.80;;
29824;SDS011;16713;52.916;12.834;2023-04-24T10:26:48;2.10;;;0.80;;
29824;SDS011;16713;52.916;12.834;2023-04-24T10:29:16;1.95;;;0.70;;
29824;SDS011;16713;52.916;12.834;2023-04-24T10:31:44;0.98;;;0.90;;
29824;SDS011;16713;52.916;12.834;2023-04-24T10:34:15;1.20;;;0.88;;
29824;SDS011;16713;52.916;12.834;2023-04-24T10:36:53;5.57;;;1.70;;
29824;SDS011;16713;52.916;12.834;2023-04-24T10:39:23;4.18;;;1.10;;
29824;SDS011;16713;52.916;12.834;2023-04-24T10:41:53;0.90;;;0.80;;
29824;SDS011;16713;52.916;12.834;2023-04-24T10:44:20;0.85;;;0.70;;
29824;SDS011;16713;52.916;12.834;2023-04-24T10:46:52;2.78;;;1.35;;
29824;SDS011;16713;52.916;12.834;2023-04-24T10:49:30;1.05;;;0.80;;
29824;SDS011;16713;52.916;12.834;2023-04-24T10:52:01;1.67;;;0.68;;
29824;SDS011;16713;52.916;12.834;2023-04-24T10:54:44;1.52;;;0.70;;
29824;SDS011;16713;52.916;12.834;2023-04-24T10:59:45;7.15;;;1.20;;
29824;SDS011;16713;52.916;12.834;2023-04-24T11:02:15;3.38;;;1.08;;
29824;SDS011;16713;52.916;12.834;2023-04-24T11:04:42;4.47;;;1.45;;
29824;SDS011;16713;52.916;12.834;2023-04-24T11:07:11;2.65;;;1.17;;
29824;SDS011;16713;52.916;12.834;2023-04-24T11:09:38;6.45;;;1.23;;
29824;SDS011;16713;52.916;12.834;2023-04-24T11:12:07;1.60;;;0.85;;
29824;SDS011;16713;52.916;12.834;2023-04-24T11:20:09;2.25;;;1.10;;
29824;SDS011;16713;52.916;12.834;2023-04-24T11:22:53;2.53;;;1.08;;
29824;SDS011;16713;52.916;12.834;2023-04-24T11:25:21;1.52;;;0.90;;
29824;SDS011;16713;52.916;12.834;2023-04-24T11:27:51;2.97;;;1.58;;
29824;SDS011;16713;52.916;12.834;2023-04-24T11:30:29;5.60;;;2.40;;
29824;SDS011;16713;52.916;12.834;2023-04-24T11:33:01;3.03;;;1.67;;
29824;SDS011;16713;52.916;12.834;2023-04-24T11:35:30;1.75;;;1.42;;
29824;SDS011;16713;52.916;12.834;2023-04-24T11:38:03;3.92;;;2.08;;
29824;SDS011;16713;52.916;12.834;2023-04-24T11:40:34;3.80;;;2.53;;
29824;SDS011;16713;52.916;12.834;2023-04-24T11:43:00;1.85;;;1.40;;
29824;SDS011;16713;52.916;12.834;2023-04-24T11:45:29;1.48;;;1.10;;
29824;SDS011;16713;52.916;12.834;2023-04-24T11:47:56;1.75;;;1.27;;
29824;SDS011;16713;52.916;12.834;2023-04-24T11:50:24;2.10;;;1.30;;
29824;SDS011;16713;52.916;12.834;2023-04-24T11:52:52;1.38;;;0.80;;
29824;SDS011;16713;52.916;12.834;2023-04-24T11:57:46;1.13;;;1.02;;
29824;SDS011;16713;52.916;12.834;2023-04-24T12:00:18;1.85;;;0.93;;
29824;SDS011;16713;52.916;12.834;2023-04-24T12:03:05;1.55;;;1.05;;
29824;SDS011;16713;52.916;12.834;2023-04-24T12:05:34;1.23;;;1.00;;
29824;SDS011;16713;52.916;12.834;2023-04-24T12:08:01;1.05;;;0.98;;
29824;SDS011;16713;52.916;12.834;2023-04-24T12:10:29;1.48;;;1.10;;
29824;SDS011;16713;52.916;12.834;2023-04-24T12:12:57;1.90;;;0.90;;
29824;SDS011;16713;52.916;12.834;2023-04-24T12:15:25;2.10;;;0.95;;
29824;SDS011;16713;52.916;12.834;2023-04-24T12:17:52;2.35;;;1.20;;
29824;SDS011;16713;52.916;12.834;2023-04-24T12:20:29;1.77;;;0.98;;
29824;SDS011;16713;52.916;12.834;2023-04-24T12:22:57;1.55;;;1.30;;
29824;SDS011;16713;52.916;12.834;2023-04-24T12:25:26;1.50;;;1.40;;
29824;SDS011;16713;52.916;12.834;2023-04-24T12:30:33;4.38;;;1.63;;
29824;SDS011;16713;52.916;12.834;2023-04-24T12:33:02;2.97;;;1.40;;
29824;SDS011;16713;52.916;12.834;2023-04-24T12:35:30;1.73;;;1.30;;
29824;SDS011;16713;52.916;12.834;2023-04-24T12:38:06;1.88;;;1.23;;
29824;SDS011;16713;52.916;12.834;2023-04-24T12:40:34;2.88;;;1.30;;
29824;SDS011;16713;52.916;12.834;2023-04-24T12:43:00;2.60;;;1.30;;
29824;SDS011;16713;52.916;12.834;2023-04-24T12:45:27;1.65;;;1.55;;
29824;SDS011;16713;52.916;12.834;2023-04-24T12:47:54;2.28;;;1.40;;
29824;SDS011;16713;52.916;12.834;2023-04-24T12:50:20;1.80;;;1.45;;
29824;SDS011;16713;52.916;12.834;2023-04-24T12:52:47;1.83;;;1.63;;
29824;SDS011;16713;52.916;12.834;2023-04-24T12:55:13;1.55;;;1.45;;
29824;SDS011;16713;52.916;12.834;2023-04-24T12:57:40;2.13;;;1.92;;
29824;SDS011;16713;52.916;12.834;2023-04-24T13:00:07;1.77;;;1.60;;
29824;SDS011;16713;52.916;12.834;2023-04-24T13:02:34;2.10;;;1.70;;
29824;SDS011;16713;52.916;12.834;2023-04-24T13:05:02;2.10;;;1.88;;
29824;SDS011;16713;52.916;12.834;2023-04-24T13:07:28;2.70;;;2.03;;
29824;SDS011;16713;52.916;12.834;2023-04-24T13:09:55;2.58;;;1.42;;
29824;SDS011;16713;52.916;12.834;2023-04-24T13:12:23;2.20;;;1.92;;
29824;SDS011;16713;52.916;12.834;2023-04-24T13:14:50;11.10;;;3.08;;
29824;SDS011;16713;52.916;12.834;2023-04-24T13:17:17;2.28;;;1.80;;
29824;SDS011;16713;52.916;12.834;2023-04-24T13:19:44;2.10;;;1.60;;
29824;SDS011;16713;52.916;12.834;2023-04-24T13:22:12;2.22;;;1.70;;
29824;SDS011;16713;52.916;12.834;2023-04-24T13:24:39;2.00;;;1.73;;
29824;SDS011;16713;52.916;12.834;2023-04-24T13:27:07;1.75;;;1.63;;
29824;SDS011;16713;52.916;12.834;2023-04-24T13:29:34;3.45;;;2.05;;
29824;SDS011;16713;52.916;12.834;2023-04-24T13:32:01;1.98;;;1.58;;
29824;SDS011;16713;52.916;12.834;2023-04-24T13:34:28;2.25;;;2.00;;
29824;SDS011;16713;52.916;12.834;2023-04-24T13:36:55;3.53;;;1.95;;
29824;SDS011;16713;52.916;12.834;2023-04-24T13:39:23;3.25;;;1.90;;
29824;SDS011;16713;52.916;12.834;2023-04-24T13:41:50;2.95;;;1.90;;
29824;SDS011;16713;52.916;12.834;2023-04-24T13:44:17;2.65;;;2.30;;
29824;SDS011;16713;52.916;12.834;2023-04-24T13:46:47;2.72;;;2.10;;
29824;SDS011;16713;52.916;12.834;2023-04-24T13:49:16;2.28;;;1.83;;
29824;SDS011;16713;52.916;12.834;2023-04-24T13:51:42;2.58;;;2.17;;
29824;SDS011;16713;52.916;12.834;2023-04-24T13:54:09;3.08;;;1.58;;
29824;SDS011;16713;52.916;12.834;2023-04-24T13:56:36;2.30;;;2.10;;
29824;SDS011;16713;52.916;12.834;2023-04-24T13:59:02;2.15;;;1.92;;
29824;SDS011;16713;52.916;12.834;2023-04-24T14:01:29;2.10;;;1.85;;
29824;SDS011;16713;52.916;12.834;2023-04-24T14:03:55;2.17;;;1.98;;
29824;SDS011;16713;52.916;12.834;2023-04-24T14:06:22;3.00;;;1.95;;
29824;SDS011;16713;52.916;12.834;2023-04-24T14:08:49;2.95;;;2.00;;
29824;SDS011;16713;52.916;12.834;2023-04-24T14:11:16;3.38;;;1.77;;
29824;SDS011;16713;52.916;12.834;2023-04-24T14:13:44;2.20;;;1.67;;
29824;SDS011;16713;52.916;12.834;2023-04-24T14:16:12;1.63;;;1.42;;
29824;SDS011;16713;52.916;12.834;2023-04-24T14:18:39;4.82;;;1.85;;
29824;SDS011;16713;52.916;12.834;2023-04-24T14:21:06;2.95;;;1.70;;
29824;SDS011;16713;52.916;12.834;2023-04-24T14:23:33;1.30;;;1.20;;
29824;SDS011;16713;52.916;12.834;2023-04-24T14:26:00;12.23;;;6.28;;
29824;SDS011;16713;52.916;12.834;2023-04-24T14:28:26;4.45;;;1.75;;
29824;SDS011;16713;52.916;12.834;2023-04-24T14:30:53;4.00;;;1.60;;
29824;SDS011;16713;52.916;12.834;2023-04-24T14:33:19;1.58;;;1.10;;
29824;SDS011;16713;52.916;12.834;2023-04-24T14:35:46;1.02;;;1.00;;
29824;SDS011;16713;52.916;12.834;2023-04-24T14:38:13;2.10;;;1.90;;
29824;SDS011;16713;52.916;12.834;2023-04-24T14:40:41;2.28;;;1.60;;
29824;SDS011;16713;52.916;12.834;2023-04-24T14:43:11;3.65;;;1.92;;
29824;SDS011;16713;52.916;12.834;2023-04-24T14:45:37;3.20;;;1.42;;
29824;SDS011;16713;52.916;12.834;2023-04-24T14:48:06;2.05;;;1.55;;
29824;SDS011;16713;52.916;12.834;2023-04-24T14:50:34;2.55;;;1.40;;